createdAt,value
2022-12-14T00:01:24.817Z,11.70
2022-12-14T00:03:52.818Z,11.00
2022-12-14T00:06:22.242Z,11.13
2022-12-14T00:08:50.933Z,11.27
2022-12-14T00:11:19.761Z,12.97
2022-12-14T00:13:48.835Z,10.93
2022-12-14T00:16:18.124Z,12.27
2022-12-14T00:18:48.625Z,10.20
2022-12-14T00:21:15.109Z,11.53
2022-12-14T00:23:43.227Z,10.40
2022-12-14T00:26:18.070Z,11.07
2022-12-14T00:28:45.877Z,10.23
2022-12-14T00:31:12.950Z,9.53
2022-12-14T00:33:40.444Z,10.10
2022-12-14T00:36:09.745Z,10.47
2022-12-14T00:38:37.291Z,9.87
2022-12-14T00:41:04.994Z,10.00
2022-12-14T00:43:32.059Z,9.70
2022-12-14T00:45:58.644Z,9.80
2022-12-14T00:48:26.508Z,10.47
2022-12-14T00:50:54.909Z,10.53
2022-12-14T00:53:22.354Z,9.83
2022-12-14T00:55:50.708Z,9.70
2022-12-14T00:58:22.295Z,9.93
2022-12-14T01:00:59.235Z,10.63
2022-12-14T01:03:26.090Z,10.60
2022-12-14T01:05:52.942Z,10.10
2022-12-14T01:08:20.157Z,10.40
2022-12-14T01:10:46.636Z,10.03
2022-12-14T01:13:13.083Z,9.70
2022-12-14T01:15:39.638Z,8.70
2022-12-14T01:18:06.123Z,9.80
2022-12-14T01:20:32.684Z,9.67
2022-12-14T01:22:59.287Z,9.63
2022-12-14T01:25:26.307Z,9.47
2022-12-14T01:27:52.820Z,9.87
2022-12-14T01:30:19.518Z,9.80
2022-12-14T01:32:47.113Z,9.53
2022-12-14T01:35:13.644Z,9.47
2022-12-14T01:37:40.107Z,9.97
2022-12-14T01:40:07.149Z,9.37
2022-12-14T01:42:38.123Z,8.70
2022-12-14T01:45:05.886Z,8.67
2022-12-14T01:47:43.776Z,8.53
2022-12-14T01:50:35.205Z,9.10
2022-12-14T01:53:08.593Z,8.80
2022-12-14T01:55:42.080Z,9.33
2022-12-14T01:58:17.088Z,9.07
2022-12-14T02:00:44.643Z,8.50
2022-12-14T02:03:38.896Z,9.20
2022-12-14T02:06:10.721Z,8.43
2022-12-14T02:08:39.345Z,8.00
2022-12-14T02:11:05.962Z,8.37
2022-12-14T02:13:38.867Z,8.50
2022-12-14T02:16:05.708Z,8.07
2022-12-14T02:18:32.852Z,8.60
2022-12-14T02:21:18.576Z,8.03
2022-12-14T02:23:57.161Z,8.83
2022-12-14T02:26:57.661Z,8.00
2022-12-14T02:29:27.140Z,8.20
2022-12-14T02:32:21.660Z,8.47
2022-12-14T02:35:19.118Z,8.03
2022-12-14T02:38:07.930Z,8.10
2022-12-14T02:41:10.398Z,8.33
2022-12-14T02:43:36.832Z,8.93
2022-12-14T02:46:15.572Z,8.40
2022-12-14T02:48:50.191Z,9.00
2022-12-14T02:51:38.228Z,9.23
2022-12-14T02:54:13.171Z,9.13
2022-12-14T02:56:53.065Z,8.57
2022-12-14T02:59:20.257Z,8.17
2022-12-14T03:01:50.320Z,8.50
2022-12-14T03:04:18.558Z,8.97
2022-12-14T03:06:57.794Z,9.07
2022-12-14T03:09:27.042Z,9.30
2022-12-14T03:12:03.231Z,9.77
2022-12-14T03:14:35.640Z,8.77
2022-12-14T03:17:19.018Z,8.50
2022-12-14T03:19:58.733Z,8.60
2022-12-14T03:22:40.201Z,10.57
2022-12-14T03:25:12.908Z,9.50
2022-12-14T03:27:44.630Z,9.07
2022-12-14T03:30:27.123Z,10.17
2022-12-14T03:33:15.921Z,9.23
2022-12-14T03:35:49.392Z,9.07
2022-12-14T03:38:38.885Z,9.37
2022-12-14T03:41:18.446Z,10.00
2022-12-14T03:44:08.467Z,10.20
2022-12-14T03:46:52.361Z,10.03
2022-12-14T03:49:50.085Z,10.80
2022-12-14T03:52:28.881Z,10.37
2022-12-14T03:55:20.766Z,10.03
2022-12-14T03:58:22.995Z,10.33
2022-12-14T04:01:00.445Z,10.50
2022-12-14T04:03:54.454Z,10.93
2022-12-14T04:06:39.600Z,9.53
2022-12-14T04:09:27.892Z,10.23
2022-12-14T04:12:22.075Z,10.87
2022-12-14T04:15:15.161Z,10.10
2022-12-14T04:18:03.247Z,10.40
2022-12-14T04:20:44.207Z,10.60
2022-12-14T04:23:37.173Z,10.13
2022-12-14T04:26:09.078Z,10.07
2022-12-14T04:29:09.599Z,9.60
2022-12-14T04:31:39.769Z,10.63
2022-12-14T04:34:10.112Z,10.00
2022-12-14T04:36:45.395Z,9.93
2022-12-14T04:39:18.477Z,10.97
2022-12-14T04:41:49.548Z,10.43
2022-12-14T04:44:24.369Z,9.93
2022-12-14T04:46:54.067Z,10.37
2022-12-14T04:49:27.195Z,11.27
2022-12-14T04:52:14.635Z,10.77
2022-12-14T04:54:53.333Z,9.37
2022-12-14T04:57:25.638Z,10.57
2022-12-14T04:59:52.496Z,10.30
2022-12-14T05:02:34.150Z,10.93
2022-12-14T05:05:21.887Z,10.77
2022-12-14T05:08:06.880Z,10.27
2022-12-14T05:10:44.083Z,10.00
2022-12-14T05:13:18.890Z,10.27
2022-12-14T05:15:50.169Z,10.80
2022-12-14T05:18:17.421Z,10.03
2022-12-14T05:20:43.882Z,10.37
2022-12-14T05:23:10.314Z,10.60
2022-12-14T05:25:36.774Z,10.47
2022-12-14T05:28:03.505Z,11.00
2022-12-14T05:30:30.427Z,9.97
2022-12-14T05:32:57.464Z,10.03
2022-12-14T05:35:23.977Z,11.17
2022-12-14T05:37:50.608Z,11.27
2022-12-14T05:40:17.164Z,11.17
2022-12-14T05:42:46.042Z,11.83
2022-12-14T05:45:15.394Z,11.63
2022-12-14T05:47:41.860Z,11.57
2022-12-14T05:50:09.093Z,10.67
2022-12-14T05:52:35.599Z,12.10
2022-12-14T05:55:04.469Z,11.43
2022-12-14T05:57:31.557Z,11.50
2022-12-14T05:59:58.052Z,12.43
2022-12-14T06:02:24.689Z,12.30
2022-12-14T06:04:51.315Z,12.70
2022-12-14T06:07:20.625Z,12.60
2022-12-14T06:09:49.534Z,12.70
2022-12-14T06:12:16.052Z,12.77
2022-12-14T06:14:42.560Z,12.67
2022-12-14T06:17:09.098Z,13.30
2022-12-14T06:19:35.569Z,13.50
2022-12-14T06:22:02.015Z,13.50
2022-12-14T06:24:28.474Z,12.93
2022-12-14T06:26:55.124Z,13.07
2022-12-14T06:29:21.722Z,12.73
2022-12-14T06:31:49.154Z,14.10
2022-12-14T06:34:17.570Z,12.50
2022-12-14T06:36:44.282Z,13.13
2022-12-14T06:39:13.172Z,14.17
2022-12-14T06:41:40.691Z,13.30
2022-12-14T06:44:11.046Z,13.93
2022-12-14T06:46:38.834Z,14.13
2022-12-14T06:49:06.384Z,13.87
2022-12-14T06:51:39.348Z,14.33
2022-12-14T06:54:06.596Z,13.67
2022-12-14T06:56:33.221Z,14.43
2022-12-14T06:58:59.763Z,14.23
2022-12-14T07:01:26.453Z,14.27
2022-12-14T07:03:55.816Z,14.67
2022-12-14T07:06:24.509Z,16.07
2022-12-14T07:08:54.473Z,15.03
2022-12-14T07:11:21.719Z,14.80
2022-12-14T07:13:49.166Z,14.53
2022-12-14T07:16:24.699Z,14.83
2022-12-14T07:18:52.400Z,15.13
2022-12-14T07:21:20.574Z,14.53
2022-12-14T07:23:48.224Z,16.37
2022-12-14T07:26:21.532Z,15.83
2022-12-14T07:28:48.814Z,16.87
2022-12-14T07:31:21.895Z,16.87
2022-12-14T07:33:49.230Z,16.07
2022-12-14T07:36:18.219Z,17.57
2022-12-14T07:38:46.561Z,17.13
2022-12-14T07:41:22.076Z,18.40
2022-12-14T07:43:49.936Z,18.33
2022-12-14T07:46:22.241Z,16.97
2022-12-14T07:48:50.916Z,17.30
2022-12-14T07:51:20.918Z,18.37
2022-12-14T07:53:47.884Z,18.83
2022-12-14T07:56:19.913Z,18.70
2022-12-14T07:58:46.754Z,17.73
2022-12-14T08:01:25.953Z,17.40
2022-12-14T08:03:55.835Z,17.60
2022-12-14T08:06:24.199Z,17.17
2022-12-14T08:08:51.748Z,18.37
2022-12-14T08:11:18.810Z,18.00
2022-12-14T08:13:46.809Z,17.53
2022-12-14T08:16:15.609Z,17.23
2022-12-14T08:18:43.228Z,16.80
2022-12-14T08:21:12.522Z,17.27
2022-12-14T08:23:39.135Z,18.17
2022-12-14T08:26:06.521Z,17.40
2022-12-14T08:28:34.516Z,22.20
2022-12-14T08:31:06.634Z,25.67
2022-12-14T08:33:35.395Z,19.17
2022-12-14T08:36:10.134Z,17.57
2022-12-14T08:38:37.460Z,18.73
2022-12-14T08:41:12.050Z,19.00
2022-12-14T08:43:39.292Z,18.03
2022-12-14T08:46:06.845Z,18.57
2022-12-14T08:48:33.391Z,17.63
2022-12-14T08:51:08.387Z,18.40
2022-12-14T08:53:36.315Z,20.27
2022-12-14T08:56:08.334Z,20.93
2022-12-14T08:58:36.327Z,18.43
2022-12-14T09:01:04.652Z,19.00
2022-12-14T09:03:34.076Z,20.70
2022-12-14T09:06:08.955Z,19.23
2022-12-14T09:08:36.028Z,26.83
2022-12-14T09:11:04.445Z,17.43
2022-12-14T09:13:32.258Z,30.80
2022-12-14T09:16:01.607Z,38.30
2022-12-14T09:18:28.971Z,25.73
2022-12-14T09:20:56.105Z,23.33
2022-12-14T09:23:24.500Z,34.90
2022-12-14T09:26:07.524Z,92.40
2022-12-14T09:28:37.331Z,44.03
2022-12-14T09:31:07.409Z,17.50
2022-12-14T09:33:34.210Z,28.60
2022-12-14T09:36:06.447Z,15.30
2022-12-14T09:38:35.806Z,20.83
2022-12-14T09:41:07.446Z,25.67
2022-12-14T09:43:39.970Z,16.20
2022-12-14T09:46:25.116Z,20.57
2022-12-14T09:48:53.090Z,17.23
2022-12-14T09:51:22.564Z,18.50
2022-12-14T09:54:02.732Z,17.00
2022-12-14T09:56:29.527Z,17.27
2022-12-14T09:59:01.876Z,15.70
2022-12-14T10:02:13.891Z,15.13
2022-12-14T10:04:55.415Z,16.20
2022-12-14T10:07:41.699Z,15.23
2022-12-14T10:10:24.049Z,17.43
2022-12-14T10:13:13.230Z,19.20
2022-12-14T10:15:42.415Z,24.90
2022-12-14T10:18:57.813Z,19.10
2022-12-14T10:21:23.467Z,15.47
2022-12-14T10:24:03.411Z,16.50
2022-12-14T10:26:41.121Z,16.60
2022-12-14T10:29:12.888Z,17.13
2022-12-14T10:32:17.476Z,16.47
2022-12-14T10:34:44.110Z,14.27
2022-12-14T10:37:30.359Z,13.80
2022-12-14T10:40:00.222Z,14.23
2022-12-14T10:43:15.199Z,13.63
2022-12-14T10:46:10.110Z,14.77
2022-12-14T10:48:49.024Z,19.13
2022-12-14T10:51:37.571Z,14.93
2022-12-14T10:54:22.616Z,14.53
2022-12-14T10:56:50.606Z,14.73
2022-12-14T10:59:33.611Z,15.40
2022-12-14T11:02:14.124Z,17.07
2022-12-14T11:04:49.924Z,20.37
2022-12-14T11:07:18.704Z,32.13
2022-12-14T11:09:45.812Z,18.13
2022-12-14T11:12:26.899Z,17.30
2022-12-14T11:15:00.679Z,16.20
2022-12-14T11:17:35.546Z,16.87
2022-12-14T11:20:19.689Z,20.50
2022-12-14T11:22:55.692Z,18.10
2022-12-14T11:25:33.570Z,19.23
2022-12-14T11:28:05.661Z,20.30
2022-12-14T11:30:32.315Z,19.67
2022-12-14T11:32:58.942Z,20.47
2022-12-14T11:35:25.540Z,17.80
2022-12-14T11:37:59.423Z,21.23
2022-12-14T11:40:27.334Z,19.00
2022-12-14T11:43:03.107Z,15.97
2022-12-14T11:45:32.562Z,15.10
2022-12-14T11:48:15.938Z,16.53
2022-12-14T11:50:44.559Z,16.67
2022-12-14T11:53:16.229Z,16.10
2022-12-14T11:56:04.734Z,16.27
2022-12-14T11:58:46.174Z,17.17
2022-12-14T12:01:18.549Z,16.60
2022-12-14T12:03:49.093Z,16.67
2022-12-14T12:06:22.464Z,15.30
2022-12-14T12:08:56.091Z,15.57
2022-12-14T12:11:26.391Z,16.63
2022-12-14T12:13:59.307Z,16.83
2022-12-14T12:16:28.115Z,16.87
2022-12-14T12:19:05.216Z,16.83
2022-12-14T12:21:40.217Z,16.53
2022-12-14T12:24:09.380Z,15.93
2022-12-14T12:26:41.320Z,16.77
2022-12-14T12:29:31.581Z,15.67
2022-12-14T12:32:00.772Z,15.87
2022-12-14T12:34:44.667Z,16.17
2022-12-14T12:37:27.596Z,16.53
2022-12-14T12:40:00.544Z,14.87
2022-12-14T12:42:34.776Z,15.43
2022-12-14T12:45:12.842Z,16.50
2022-12-14T12:47:48.494Z,15.40
2022-12-14T12:50:19.374Z,15.73
2022-12-14T12:53:05.365Z,16.43
2022-12-14T12:55:36.756Z,16.00
2022-12-14T12:58:09.425Z,17.40
2022-12-14T13:00:38.203Z,17.03
2022-12-14T13:03:15.860Z,17.13
2022-12-14T13:05:46.647Z,16.70
2022-12-14T13:08:23.475Z,17.60
2022-12-14T13:13:45.212Z,17.90
2022-12-14T13:16:24.620Z,17.20
2022-12-14T13:19:04.797Z,16.30
2022-12-14T13:21:47.905Z,17.40
2022-12-14T13:24:19.130Z,18.17
2022-12-14T13:27:12.318Z,18.13
2022-12-14T13:29:50.543Z,17.80
2022-12-14T13:32:37.934Z,17.23
2022-12-14T13:35:29.198Z,16.50
2022-12-14T13:38:01.818Z,17.47
2022-12-14T13:40:56.901Z,17.60
2022-12-14T13:44:14.935Z,18.00
2022-12-14T13:46:41.932Z,17.70
2022-12-14T13:49:19.361Z,17.27
2022-12-14T13:51:50.087Z,18.87
2022-12-14T13:54:33.079Z,18.70
2022-12-14T13:57:07.960Z,18.37
2022-12-14T13:59:42.284Z,18.70
2022-12-14T14:02:27.306Z,18.60
2022-12-14T14:05:16.264Z,17.90
2022-12-14T14:08:09.070Z,17.13
2022-12-14T14:10:38.117Z,17.70
2022-12-14T14:13:29.423Z,18.20
2022-12-14T14:18:49.884Z,17.63
2022-12-14T14:21:22.455Z,17.23
2022-12-14T14:23:58.500Z,18.53
2022-12-14T14:26:27.990Z,17.87
2022-12-14T14:29:13.301Z,18.20
2022-12-14T14:31:46.128Z,18.50
2022-12-14T14:34:37.569Z,17.60
2022-12-14T14:37:38.598Z,17.40
2022-12-14T14:40:23.519Z,17.87
2022-12-14T14:43:06.564Z,16.73
2022-12-14T14:45:49.936Z,17.17
2022-12-14T14:48:34.883Z,17.27
2022-12-14T14:51:08.759Z,17.23
2022-12-14T14:53:36.827Z,18.20
2022-12-14T14:56:32.344Z,17.23
2022-12-14T14:59:16.841Z,17.23
2022-12-14T15:02:01.396Z,16.43
2022-12-14T15:04:41.366Z,16.87
2022-12-14T15:07:15.232Z,16.63
2022-12-14T15:09:59.518Z,16.53
2022-12-14T15:12:37.201Z,16.43
2022-12-14T15:15:18.646Z,17.50
2022-12-14T15:17:45.783Z,17.80
2022-12-14T15:20:40.044Z,18.17
2022-12-14T15:23:07.146Z,17.17
2022-12-14T15:25:33.757Z,19.37
2022-12-14T15:28:10.216Z,18.30
2022-12-14T15:30:36.861Z,18.60
2022-12-14T15:33:24.975Z,17.80
2022-12-14T15:35:51.555Z,17.63
2022-12-14T15:38:22.692Z,17.80
2022-12-14T15:41:00.651Z,18.90
2022-12-14T15:43:28.080Z,19.03
2022-12-14T15:46:04.040Z,18.10
2022-12-14T15:48:34.292Z,17.97
2022-12-14T15:51:04.365Z,17.57
2022-12-14T15:53:37.643Z,17.67
2022-12-14T15:56:18.143Z,17.77
2022-12-14T15:58:45.156Z,17.20
2022-12-14T16:01:18.723Z,17.30
2022-12-14T16:03:58.760Z,18.17
2022-12-14T16:06:28.890Z,18.43
2022-12-14T16:09:18.294Z,18.80
2022-12-14T16:11:48.205Z,20.77
2022-12-14T16:14:29.828Z,19.53
2022-12-14T16:16:56.649Z,18.30
2022-12-14T16:19:31.199Z,19.13
2022-12-14T16:22:09.869Z,19.83
2022-12-14T16:24:38.232Z,20.27
2022-12-14T16:27:04.898Z,19.80
2022-12-14T16:29:33.423Z,19.43
2022-12-14T16:32:14.590Z,18.13
2022-12-14T16:34:47.518Z,18.70
2022-12-14T16:37:33.911Z,18.23
2022-12-14T16:40:00.888Z,18.20
2022-12-14T16:42:28.860Z,18.90
2022-12-14T16:44:55.341Z,21.00
2022-12-14T16:47:34.079Z,21.70
2022-12-14T16:50:01.037Z,20.23
2022-12-14T16:52:32.839Z,21.07
2022-12-14T16:55:20.443Z,21.37
2022-12-14T16:57:54.132Z,19.50
2022-12-14T17:00:29.823Z,18.83
2022-12-14T17:02:58.082Z,18.23
2022-12-14T17:05:26.357Z,19.40
2022-12-14T17:07:52.812Z,18.77
2022-12-14T17:10:25.158Z,18.37
2022-12-14T17:12:56.173Z,18.13
2022-12-14T17:15:24.827Z,18.07
2022-12-14T17:17:53.759Z,19.03
2022-12-14T17:20:24.473Z,24.60
2022-12-14T17:22:51.384Z,23.80
2022-12-14T17:25:18.419Z,24.90
2022-12-14T17:27:45.179Z,25.70
2022-12-14T17:30:18.480Z,27.37
2022-12-14T17:32:45.456Z,29.40
2022-12-14T17:35:20.380Z,30.37
2022-12-14T17:37:47.309Z,30.03
2022-12-14T17:40:16.455Z,41.67
2022-12-14T17:42:47.251Z,24.90
2022-12-14T17:45:30.373Z,24.43
2022-12-14T17:47:58.027Z,24.77
2022-12-14T17:50:28.056Z,23.37
2022-12-14T17:52:54.655Z,23.20
2022-12-14T17:55:26.871Z,21.47
2022-12-14T17:57:54.353Z,23.67
2022-12-14T18:00:43.277Z,22.03
2022-12-14T18:03:12.049Z,21.10
2022-12-14T18:05:46.481Z,21.87
2022-12-14T18:08:16.259Z,20.63
2022-12-14T18:10:43.152Z,21.50
2022-12-14T18:13:11.367Z,26.57
2022-12-14T18:15:41.873Z,23.27
2022-12-14T18:18:08.801Z,24.57
2022-12-14T18:20:36.488Z,24.77
2022-12-14T18:23:03.035Z,25.93
2022-12-14T18:25:35.239Z,25.87
2022-12-14T18:28:04.264Z,26.67
2022-12-14T18:30:38.690Z,25.13
2022-12-14T18:33:16.559Z,25.37
2022-12-14T18:35:44.617Z,24.77
2022-12-14T18:38:11.838Z,24.97
2022-12-14T18:40:39.447Z,25.13
2022-12-14T18:43:05.971Z,25.20
2022-12-14T18:45:34.338Z,23.70
2022-12-14T18:48:01.606Z,24.80
2022-12-14T18:50:28.943Z,25.57
2022-12-14T18:52:55.786Z,30.33
2022-12-14T18:55:28.480Z,27.63
2022-12-14T18:57:56.688Z,25.73
2022-12-14T19:00:25.426Z,26.07
2022-12-14T19:02:53.089Z,24.57
2022-12-14T19:05:25.557Z,23.40
2022-12-14T19:07:52.798Z,22.30
2022-12-14T19:10:22.538Z,26.33
2022-12-14T19:12:50.249Z,24.60
2022-12-14T19:15:20.026Z,22.07
2022-12-14T19:17:46.951Z,30.70
2022-12-14T19:20:15.200Z,35.43
2022-12-14T19:22:42.208Z,28.43
2022-12-14T19:25:09.560Z,26.30
2022-12-14T19:28:19.964Z,25.73
2022-12-14T19:30:24.113Z,22.80
2022-12-14T19:32:56.130Z,23.80
2022-12-14T19:35:24.169Z,23.37
2022-12-14T19:37:51.400Z,22.23
2022-12-14T19:40:18.677Z,23.10
2022-12-14T19:42:46.804Z,26.13
2022-12-14T19:45:14.196Z,24.10
2022-12-14T19:47:40.747Z,24.63
2022-12-14T19:50:07.883Z,24.77
2022-12-14T19:52:34.649Z,24.27
2022-12-14T19:55:01.869Z,22.97
2022-12-14T19:57:28.498Z,23.30
2022-12-14T19:59:56.947Z,23.57
2022-12-14T20:02:23.652Z,23.57
2022-12-14T20:04:50.348Z,23.63
2022-12-14T20:07:16.997Z,22.93
2022-12-14T20:09:43.449Z,21.77
2022-12-14T20:12:11.236Z,21.80
2022-12-14T20:14:42.600Z,22.97
2022-12-14T20:17:10.825Z,21.47
2022-12-14T20:19:39.043Z,21.57
2022-12-14T20:22:06.912Z,22.63
2022-12-14T20:24:33.551Z,21.77
2022-12-14T20:27:00.082Z,21.97
2022-12-14T20:29:27.565Z,24.23
2022-12-14T20:31:55.276Z,23.60
2022-12-14T20:34:22.408Z,23.00
2022-12-14T20:36:49.344Z,26.07
2022-12-14T20:39:15.876Z,25.40
2022-12-14T20:41:42.393Z,23.63
2022-12-14T20:44:11.849Z,24.20
2022-12-14T20:46:42.767Z,23.37
2022-12-14T20:49:16.014Z,22.90
2022-12-14T20:51:43.792Z,22.17
2022-12-14T20:54:13.363Z,22.23
2022-12-14T20:56:40.242Z,22.43
2022-12-14T20:59:08.008Z,20.43
2022-12-14T21:01:37.244Z,21.47
2022-12-14T21:04:04.449Z,22.43
2022-12-14T21:06:32.974Z,22.57
2022-12-14T21:09:05.587Z,22.93
2022-12-14T21:11:55.991Z,24.57
2022-12-14T21:14:24.418Z,26.30
2022-12-14T21:16:51.393Z,23.57
2022-12-14T21:19:18.066Z,23.03
2022-12-14T21:21:48.257Z,26.70
2022-12-14T21:24:37.272Z,24.27
2022-12-14T21:27:08.294Z,22.93
2022-12-14T21:29:34.847Z,18.63
2022-12-14T21:32:01.547Z,18.20
2022-12-14T21:34:29.185Z,17.17
2022-12-14T21:36:55.662Z,17.93
2022-12-14T21:39:22.245Z,19.10
2022-12-14T21:42:07.150Z,22.00
2022-12-14T21:44:36.741Z,23.33
2022-12-14T21:47:05.891Z,23.10
2022-12-14T21:49:32.491Z,24.60
2022-12-14T21:51:59.037Z,23.30
2022-12-14T21:54:26.162Z,22.53
2022-12-14T21:57:11.233Z,22.77
2022-12-14T21:59:40.794Z,23.77
2022-12-14T22:02:12.812Z,22.47
2022-12-14T22:04:40.201Z,21.17
2022-12-14T22:07:06.780Z,20.50
2022-12-14T22:09:33.245Z,20.63
2022-12-14T22:11:59.734Z,20.13
2022-12-14T22:14:26.297Z,21.17
2022-12-14T22:16:53.523Z,20.37
2022-12-14T22:19:24.489Z,20.50
2022-12-14T22:21:52.272Z,23.17
2022-12-14T22:24:20.666Z,23.80
2022-12-14T22:26:47.222Z,24.20
2022-12-14T22:29:15.366Z,23.23
2022-12-14T22:31:42.080Z,22.53
2022-12-14T22:34:15.485Z,23.23
2022-12-14T22:36:41.948Z,23.63
2022-12-14T22:39:09.389Z,22.47
2022-12-14T22:41:37.443Z,21.57
2022-12-14T22:44:04.994Z,22.10
2022-12-14T22:46:33.171Z,22.73
2022-12-14T22:49:00.121Z,23.77
2022-12-14T22:51:29.100Z,21.23
2022-12-14T22:53:56.237Z,20.73
2022-12-14T22:56:28.565Z,21.07
2022-12-14T22:59:18.418Z,19.77
2022-12-14T23:01:49.737Z,19.90
2022-12-14T23:04:17.770Z,19.77
2022-12-14T23:06:45.015Z,19.93
2022-12-14T23:09:30.428Z,18.90
2022-12-14T23:12:21.325Z,18.67
2022-12-14T23:15:07.607Z,20.17
2022-12-14T23:17:53.587Z,20.73
2022-12-14T23:20:38.887Z,22.13
2022-12-14T23:23:25.634Z,21.93
2022-12-14T23:26:10.590Z,21.93
2022-12-14T23:28:55.350Z,21.70
2022-12-14T23:31:40.216Z,22.20
2022-12-14T23:34:25.110Z,21.10
2022-12-14T23:37:12.691Z,21.80
2022-12-14T23:40:00.078Z,21.07
2022-12-14T23:42:44.966Z,21.17
2022-12-14T23:45:29.633Z,20.13
2022-12-14T23:48:15.005Z,19.83
2022-12-14T23:51:00.208Z,21.80
2022-12-14T23:53:45.348Z,21.27
2022-12-14T23:56:35.341Z,19.80
2022-12-14T23:59:22.788Z,18.70
